ジュネーヴ の空港の天気 - METARとTAF

ジュネーヴ・コアントラン国際空港 ( LSGG / GVA ) - スイス ジュネーヴ
飛行場実況気象(Metar)
観測時間05/25 04:50 CEST (05/25 02:50 UTC)
風向・風速不定 1m/s
視程10km以上
天気現象
なし
気温13℃
湿度88%
気圧1018hPa
METARLSGG 250250Z AUTO VRB01KT CAVOK 13/11 Q1018 NOSIG
過去の天気等 Google飛行場航空写真 Wunderground天気予報

過去48時間のMETAR

飛行場予報(TAF)
発表時間: 5/25 04:25 CEST (5/25 02:25 UTC)
予報対象時間: 25日5時 CEST ~ 26日11時 CEST
風向・風速不定 2m/s
視程10km以上
なし
25日9時 CEST ~ 25日11時 CEST に徐々に
視程10km以上
少しの雲 雲底高度 910m
25日11時 CEST ~ 25日13時 CEST に徐々に
風向・風速北東 5m/s
25日21時 CEST ~ 25日23時 CEST に徐々に
視程10km以上
なし
TAF LSGG 250225Z 2503/2609 VRB03KT CAVOK TX26/2515Z TN12/2505Z TN13/2605Z
BECMG 2507/2509 9999 FEW030
BECMG 2509/2511 05010KT
BECMG 2519/2521 CAVOK